createdAt,value
2018-09-23T00:00:27.597Z,19.71
2018-09-23T00:02:56.862Z,19.69
2018-09-23T00:05:26.497Z,19.61
2018-09-23T00:07:55.712Z,19.57
2018-09-23T00:10:25.314Z,19.58
2018-09-23T00:12:54.521Z,19.58
2018-09-23T00:15:24.212Z,19.57
2018-09-23T00:17:53.420Z,19.63
2018-09-23T00:20:22.648Z,19.69
2018-09-23T00:22:51.865Z,19.81
2018-09-23T00:25:21.369Z,19.92
2018-09-23T00:27:50.684Z,19.98
2018-09-23T00:30:22.296Z,19.91
2018-09-23T00:32:51.488Z,19.87
2018-09-23T00:35:22.813Z,19.85
2018-09-23T00:37:52.107Z,19.85
2018-09-23T00:40:21.825Z,19.86
2018-09-23T00:42:50.992Z,19.82
2018-09-23T00:45:20.114Z,19.79
2018-09-23T00:47:49.320Z,19.84
2018-09-23T00:50:21.985Z,19.78
2018-09-23T00:52:51.382Z,19.71
2018-09-23T00:55:20.629Z,19.61
2018-09-23T00:57:49.821Z,19.53
2018-09-23T01:00:22.077Z,19.47
2018-09-23T01:02:51.377Z,19.47
2018-09-23T01:05:21.519Z,19.44
2018-09-23T01:07:50.702Z,19.40
2018-09-23T01:10:22.252Z,19.29
2018-09-23T01:12:51.590Z,19.29
2018-09-23T01:15:21.873Z,19.30
2018-09-23T01:17:51.161Z,19.42
2018-09-23T01:20:22.738Z,19.43
2018-09-23T01:22:52.337Z,19.45
2018-09-23T01:25:21.825Z,19.36
2018-09-23T01:27:51.063Z,19.33
2018-09-23T01:30:21.734Z,19.19
2018-09-23T01:32:51.175Z,19.31
2018-09-23T01:35:22.049Z,19.39
2018-09-23T01:37:51.297Z,19.42
2018-09-23T01:40:22.768Z,19.42
2018-09-23T01:42:51.999Z,19.43
2018-09-23T01:45:22.323Z,19.33
2018-09-23T01:47:51.530Z,19.24
2018-09-23T01:50:24.654Z,19.36
2018-09-23T01:52:53.898Z,19.47
2018-09-23T01:55:23.205Z,19.48
2018-09-23T01:57:52.644Z,19.49
2018-09-23T02:00:21.863Z,19.46
2018-09-23T02:02:50.979Z,19.42
2018-09-23T02:05:21.740Z,19.43
2018-09-23T02:07:51.228Z,19.43
2018-09-23T02:10:23.170Z,19.45
2018-09-23T02:12:52.588Z,19.46
2018-09-23T02:15:21.794Z,19.44
2018-09-23T02:17:51.144Z,19.44
2018-09-23T02:20:21.767Z,19.49
2018-09-23T02:22:51.074Z,19.55
2018-09-23T02:25:20.227Z,19.47
2018-09-23T02:27:49.365Z,19.57
2018-09-23T02:30:22.022Z,19.57
2018-09-23T02:32:51.146Z,19.55
2018-09-23T02:35:22.858Z,19.58
2018-09-23T02:37:53.205Z,19.53
2018-09-23T02:40:22.426Z,19.50
2018-09-23T02:42:52.234Z,19.38
2018-09-23T02:45:22.176Z,19.10
2018-09-23T02:47:51.370Z,18.89
2018-09-23T02:50:22.545Z,18.45
2018-09-23T02:52:51.747Z,18.38
2018-09-23T02:55:20.895Z,18.47
2018-09-23T02:57:50.139Z,18.60
2018-09-23T03:00:20.647Z,18.76
2018-09-23T03:02:49.838Z,18.65
2018-09-23T03:05:21.802Z,18.62
2018-09-23T03:07:51.046Z,18.36
2018-09-23T03:10:21.947Z,18.51
2018-09-23T03:12:51.167Z,18.51
2018-09-23T03:15:20.607Z,18.63
2018-09-23T03:17:49.836Z,18.54
2018-09-23T03:20:22.820Z,18.46
2018-09-23T03:22:52.157Z,18.41
2018-09-23T03:25:21.456Z,18.21
2018-09-23T03:27:50.629Z,18.23
2018-09-23T03:30:23.666Z,18.37
2018-09-23T03:32:52.969Z,18.41
2018-09-23T03:35:23.060Z,18.50
2018-09-23T03:37:52.393Z,18.52
2018-09-23T03:40:24.381Z,18.50
2018-09-23T03:42:53.634Z,18.53
2018-09-23T03:45:23.738Z,18.40
2018-09-23T03:47:53.133Z,18.44
2018-09-23T03:50:22.289Z,18.37
2018-09-23T03:52:51.410Z,18.40
2018-09-23T03:55:21.552Z,18.30
2018-09-23T03:57:50.657Z,18.24
2018-09-23T04:00:24.304Z,18.27
2018-09-23T04:02:53.633Z,18.08
2018-09-23T04:05:22.778Z,18.13
2018-09-23T04:07:51.993Z,18.11
2018-09-23T04:10:21.049Z,18.04
2018-09-23T04:12:50.146Z,18.18
2018-09-23T04:15:19.371Z,18.18
2018-09-23T04:17:48.812Z,18.22
2018-09-23T04:20:22.186Z,18.22
2018-09-23T04:22:52.246Z,18.10
2018-09-23T04:25:22.571Z,18.04
2018-09-23T04:27:51.880Z,18.00
2018-09-23T04:30:22.133Z,17.96
2018-09-23T04:32:51.773Z,17.90
2018-09-23T04:35:20.912Z,17.97
2018-09-23T04:37:50.143Z,17.87
2018-09-23T04:40:19.291Z,17.87
2018-09-23T04:42:48.396Z,17.85
2018-09-23T04:45:17.650Z,17.82
2018-09-23T04:47:46.819Z,17.81
2018-09-23T04:50:17.728Z,17.75
2018-09-23T04:52:46.979Z,17.53
2018-09-23T04:55:17.314Z,17.64
2018-09-23T04:57:46.421Z,17.62
2018-09-23T05:00:18.069Z,17.60
2018-09-23T05:02:47.552Z,17.58
2018-09-23T05:05:18.870Z,17.58
2018-09-23T05:07:48.126Z,17.66
2018-09-23T05:10:19.806Z,17.74
2018-09-23T05:12:49.061Z,17.82
2018-09-23T05:15:18.338Z,17.89
2018-09-23T05:17:48.303Z,17.89
2018-09-23T05:20:21.793Z,17.92
2018-09-23T05:22:51.005Z,17.81
2018-09-23T05:25:21.241Z,17.77
2018-09-23T05:27:50.404Z,17.75
2018-09-23T05:30:19.735Z,17.76
2018-09-23T05:32:48.974Z,17.75
2018-09-23T05:35:20.132Z,17.79
2018-09-23T05:37:50.363Z,17.75
2018-09-23T05:40:21.721Z,17.95
2018-09-23T05:42:53.809Z,18.06
2018-09-23T05:45:26.853Z,17.88
2018-09-23T05:47:56.781Z,17.81
2018-09-23T05:50:26.286Z,17.69
2018-09-23T05:52:55.507Z,17.66
2018-09-23T05:55:25.824Z,17.70
2018-09-23T05:57:55.023Z,17.66
2018-09-23T06:00:24.787Z,17.62
2018-09-23T06:02:53.929Z,17.58
2018-09-23T06:05:23.100Z,17.53
2018-09-23T06:07:52.209Z,17.60
2018-09-23T06:10:21.381Z,17.67
2018-09-23T06:12:53.515Z,17.68
2018-09-23T06:15:28.314Z,17.54
2018-09-23T06:17:58.035Z,17.60
2018-09-23T06:20:41.260Z,17.74
2018-09-23T06:23:10.513Z,17.78
2018-09-23T06:25:39.669Z,17.89
2018-09-23T06:28:09.386Z,17.89
2018-09-23T06:30:39.464Z,17.98
2018-09-23T06:33:08.685Z,18.09
2018-09-23T06:35:40.585Z,18.11
2018-09-23T06:38:10.139Z,18.28
2018-09-23T06:40:39.385Z,18.20
2018-09-23T06:43:08.723Z,18.36
2018-09-23T06:45:38.111Z,18.37
2018-09-23T06:48:07.308Z,18.72
2018-09-23T06:50:37.175Z,18.68
2018-09-23T06:53:06.478Z,18.74
2018-09-23T06:55:43.384Z,18.79
2018-09-23T06:58:12.481Z,18.81
2018-09-23T07:00:41.651Z,18.79
2018-09-23T07:03:10.806Z,18.91
2018-09-23T07:05:39.966Z,19.20
2018-09-23T07:08:09.149Z,19.31
2018-09-23T07:10:38.354Z,19.26
2018-09-23T07:13:07.507Z,19.44
2018-09-23T07:15:36.677Z,19.39
2018-09-23T07:18:06.083Z,19.40
2018-09-23T07:20:35.157Z,19.36
2018-09-23T07:23:04.408Z,19.60
2018-09-23T07:25:33.733Z,19.87
2018-09-23T07:28:02.899Z,19.65
2018-09-23T07:30:32.025Z,19.33
2018-09-23T07:33:01.206Z,19.43
2018-09-23T07:35:30.319Z,19.53
2018-09-23T07:37:59.675Z,19.53
2018-09-23T07:40:29.049Z,19.55
2018-09-23T07:42:58.212Z,19.45
2018-09-23T07:45:27.864Z,19.53
2018-09-23T07:47:58.132Z,19.57
2018-09-23T07:50:27.890Z,19.51
2018-09-23T07:52:57.063Z,19.75
2018-09-23T07:55:26.646Z,19.70
2018-09-23T07:57:55.856Z,19.98
2018-09-23T08:00:25.768Z,20.50
2018-09-23T08:02:55.412Z,20.57
2018-09-23T08:05:25.560Z,20.71
2018-09-23T08:07:55.664Z,20.78
2018-09-23T08:10:25.792Z,21.04
2018-09-23T08:12:55.085Z,21.32
2018-09-23T08:15:24.571Z,21.59
2018-09-23T08:17:53.881Z,21.73
2018-09-23T08:20:23.191Z,22.51
2018-09-23T08:22:52.281Z,22.87
2018-09-23T08:25:21.519Z,23.16
2018-09-23T08:27:50.728Z,23.03
2018-09-23T08:30:22.511Z,23.47
2018-09-23T08:32:51.690Z,23.31
2018-09-23T08:35:21.163Z,23.71
2018-09-23T08:37:52.254Z,23.09
2018-09-23T08:40:24.989Z,23.42
2018-09-23T08:42:55.049Z,24.05
2018-09-23T08:45:25.279Z,24.38
2018-09-23T08:47:55.191Z,23.94
2018-09-23T08:50:25.059Z,24.03
2018-09-23T08:52:54.936Z,24.31
2018-09-23T08:55:24.454Z,24.76
2018-09-23T08:57:53.858Z,24.98
2018-09-23T09:00:23.281Z,25.23
2018-09-23T09:02:53.938Z,25.94
2018-09-23T09:05:23.389Z,25.77
2018-09-23T09:07:52.828Z,25.02
2018-09-23T09:10:22.456Z,25.17
2018-09-23T09:12:52.427Z,25.23
2018-09-23T09:15:21.597Z,25.49
2018-09-23T09:17:50.856Z,24.89
2018-09-23T09:20:22.566Z,25.40
2018-09-23T09:22:51.896Z,24.42
2018-09-23T09:25:21.736Z,24.92
2018-09-23T09:27:51.266Z,25.35
2018-09-23T09:30:22.445Z,25.66
2018-09-23T09:32:52.285Z,25.65
2018-09-23T09:35:23.104Z,26.42
2018-09-23T09:37:52.409Z,26.32
2018-09-23T09:40:22.553Z,26.33
2018-09-23T09:42:52.502Z,27.10
2018-09-23T09:45:21.772Z,26.58
2018-09-23T09:47:51.031Z,27.38
2018-09-23T09:50:22.900Z,27.60
2018-09-23T09:52:52.296Z,27.70
2018-09-23T09:55:21.539Z,27.71
2018-09-23T09:57:50.670Z,27.28
2018-09-23T10:00:25.002Z,27.06
2018-09-23T10:02:54.256Z,27.52
2018-09-23T10:05:23.413Z,27.58
2018-09-23T10:07:52.964Z,26.77
2018-09-23T10:10:22.893Z,26.95
2018-09-23T10:12:52.090Z,27.52
2018-09-23T10:15:21.263Z,27.67
2018-09-23T10:17:50.525Z,27.92
2018-09-23T10:20:22.285Z,28.80
2018-09-23T10:22:51.493Z,29.27
2018-09-23T10:25:21.097Z,29.17
2018-09-23T10:27:50.313Z,27.89
2018-09-23T10:30:21.770Z,28.01
2018-09-23T10:32:50.874Z,28.11
2018-09-23T10:35:20.731Z,27.76
2018-09-23T10:37:49.889Z,27.63
2018-09-23T10:40:22.908Z,27.22
2018-09-23T10:42:52.059Z,27.33
2018-09-23T10:45:24.345Z,27.21
2018-09-23T10:47:53.541Z,27.24
2018-09-23T10:50:25.150Z,26.95
2018-09-23T10:52:54.384Z,27.05
2018-09-23T10:55:24.010Z,26.82
2018-09-23T10:57:53.193Z,26.68
2018-09-23T11:00:28.407Z,26.92
2018-09-23T11:02:57.519Z,26.99
2018-09-23T11:05:27.026Z,27.62
2018-09-23T11:07:56.405Z,28.17
2018-09-23T11:10:26.071Z,27.61
2018-09-23T11:12:55.196Z,27.47
2018-09-23T11:15:24.894Z,27.26
2018-09-23T11:17:54.093Z,27.70
2018-09-23T11:20:23.330Z,27.53
2018-09-23T11:22:52.802Z,27.18
2018-09-23T11:25:21.983Z,27.22
2018-09-23T11:27:51.158Z,27.95
2018-09-23T11:30:22.647Z,28.13
2018-09-23T11:32:51.791Z,27.40
2018-09-23T11:35:21.270Z,27.79
2018-09-23T11:37:50.460Z,27.55
2018-09-23T11:40:21.992Z,28.03
2018-09-23T11:42:51.266Z,28.01
2018-09-23T11:45:20.437Z,27.72
2018-09-23T11:47:49.557Z,27.51
2018-09-23T11:50:22.101Z,27.67
2018-09-23T11:52:51.287Z,27.69
2018-09-23T11:55:20.895Z,27.89
2018-09-23T11:57:50.143Z,28.32
2018-09-23T12:00:21.752Z,28.38
2018-09-23T12:02:51.027Z,27.39
2018-09-23T12:05:20.457Z,27.20
2018-09-23T12:07:49.760Z,27.24
2018-09-23T12:10:21.582Z,27.78
2018-09-23T12:12:53.688Z,28.37
2018-09-23T12:15:22.879Z,27.46
2018-09-23T12:17:52.013Z,27.32
2018-09-23T12:20:22.903Z,27.08
2018-09-23T12:22:52.061Z,27.25
2018-09-23T12:25:21.173Z,27.12
2018-09-23T12:27:50.357Z,27.51
2018-09-23T12:30:23.184Z,27.63
2018-09-23T12:32:52.481Z,26.72
2018-09-23T12:35:22.788Z,26.88
2018-09-23T12:37:52.181Z,27.60
2018-09-23T12:40:22.288Z,28.38
2018-09-23T12:42:51.424Z,28.37
2018-09-23T12:45:20.554Z,28.32
2018-09-23T12:47:49.683Z,28.41
2018-09-23T12:50:22.553Z,27.83
2018-09-23T12:52:52.078Z,27.64
2018-09-23T12:55:21.319Z,27.49
2018-09-23T12:57:50.625Z,27.81
2018-09-23T13:00:22.505Z,27.96
2018-09-23T13:07:00.866Z,27.96
2018-09-23T13:09:32.756Z,27.79
2018-09-23T13:15:22.306Z,27.20
2018-09-23T13:17:51.439Z,27.27
2018-09-23T13:20:22.423Z,27.35
2018-09-23T13:22:51.684Z,27.20
2018-09-23T13:25:21.203Z,27.10
2018-09-23T13:27:50.572Z,26.93
2018-09-23T13:30:22.190Z,27.05
2018-09-23T13:32:52.397Z,27.08
2018-09-23T13:35:21.775Z,27.44
2018-09-23T13:37:51.012Z,27.13
2018-09-23T13:40:21.959Z,26.96
2018-09-23T13:42:51.179Z,27.19
2018-09-23T13:45:20.180Z,27.46
2018-09-23T13:47:50.065Z,27.44
2018-09-23T13:50:22.105Z,26.98
2018-09-23T13:52:51.463Z,26.96
2018-09-23T13:55:20.540Z,26.81
2018-09-23T13:57:49.540Z,26.71
2018-09-23T14:00:21.814Z,26.54
2018-09-23T14:02:50.877Z,26.40
2018-09-23T14:05:20.632Z,25.98
2018-09-23T14:07:49.985Z,25.83
2018-09-23T14:10:45.823Z,25.88
2018-09-23T14:16:49.383Z,25.77
2018-09-23T14:19:50.176Z,25.88
2018-09-23T14:22:19.216Z,25.80
2018-09-23T14:24:48.306Z,25.71
2018-09-23T14:27:17.804Z,25.78
2018-09-23T14:29:46.812Z,25.79
2018-09-23T14:32:15.784Z,25.76
2018-09-23T14:34:44.706Z,25.86
2018-09-23T14:37:13.828Z,25.79
2018-09-23T14:39:42.830Z,25.69
2018-09-23T14:42:12.338Z,25.84
2018-09-23T14:44:41.262Z,25.80
2018-09-23T14:47:10.323Z,25.80
2018-09-23T14:49:39.249Z,25.78
2018-09-23T14:52:08.604Z,25.72
2018-09-23T14:54:37.820Z,25.63
2018-09-23T14:57:06.652Z,25.60
2018-09-23T14:59:35.666Z,25.52
2018-09-23T15:02:04.620Z,25.52
2018-09-23T15:04:34.337Z,25.54
2018-09-23T15:07:03.382Z,25.44
2018-09-23T15:09:32.744Z,25.42
2018-09-23T15:12:01.746Z,25.41
2018-09-23T15:14:30.819Z,25.37
2018-09-23T15:17:00.199Z,25.31
2018-09-23T15:19:29.267Z,25.30
2018-09-23T15:21:58.526Z,25.25
2018-09-23T15:24:28.381Z,25.13
2018-09-23T15:26:57.689Z,25.06
2018-09-23T15:29:27.391Z,25.02
2018-09-23T15:31:56.701Z,25.01
2018-09-23T15:34:26.681Z,24.92
2018-09-23T15:36:55.938Z,24.85
2018-09-23T15:39:25.565Z,24.74
2018-09-23T15:41:54.825Z,24.77
2018-09-23T15:44:25.305Z,24.67
2018-09-23T15:46:54.445Z,24.64
2018-09-23T15:49:23.754Z,24.61
2018-09-23T15:51:53.081Z,24.59
2018-09-23T15:54:22.457Z,24.53
2018-09-23T15:56:51.700Z,24.47
2018-09-23T15:59:20.981Z,24.37
2018-09-23T16:01:51.113Z,24.39
2018-09-23T16:04:20.409Z,24.38
2018-09-23T16:06:55.545Z,24.32
2018-09-23T16:09:25.164Z,24.20
2018-09-23T16:11:54.302Z,24.19
2018-09-23T16:14:23.589Z,24.13
2018-09-23T16:16:52.947Z,24.03
2018-09-23T16:19:22.261Z,24.02
2018-09-23T16:21:51.531Z,24.02
2018-09-23T16:24:20.660Z,23.91
2018-09-23T16:26:49.830Z,23.84
2018-09-23T16:29:19.264Z,23.80
2018-09-23T16:31:49.148Z,23.74
2018-09-23T16:34:18.286Z,23.67
2018-09-23T16:36:47.493Z,23.57
2018-09-23T16:39:16.965Z,23.53
2018-09-23T16:41:46.197Z,23.42
2018-09-23T16:44:15.386Z,23.32
2018-09-23T16:46:44.729Z,23.25
2018-09-23T16:49:13.853Z,23.13
2018-09-23T16:51:43.179Z,23.06
2018-09-23T16:54:12.358Z,22.98
2018-09-23T16:56:41.552Z,22.90
2018-09-23T16:59:10.827Z,22.85
2018-09-23T17:01:39.896Z,22.80
2018-09-23T17:04:09.098Z,22.74
2018-09-23T17:06:38.318Z,22.68
2018-09-23T17:09:09.502Z,22.58
2018-09-23T17:11:39.227Z,22.52
2018-09-23T17:14:08.465Z,22.40
2018-09-23T17:16:37.712Z,22.31
2018-09-23T17:19:07.116Z,22.26
2018-09-23T17:21:36.253Z,22.18
2018-09-23T17:24:05.397Z,22.19
2018-09-23T17:26:34.576Z,22.13
2018-09-23T17:29:03.787Z,22.05
2018-09-23T17:31:32.976Z,21.99
2018-09-23T17:34:02.211Z,21.97
2018-09-23T17:36:31.328Z,21.91
2018-09-23T17:39:00.551Z,21.89
2018-09-23T17:41:29.727Z,21.85
2018-09-23T17:43:58.931Z,21.82
2018-09-23T17:49:19.462Z,21.67
2018-09-23T17:54:51.864Z,21.62
2018-09-23T17:57:21.336Z,21.55
2018-09-23T17:59:50.669Z,21.47
2018-09-23T18:02:19.855Z,21.47
2018-09-23T18:04:48.891Z,21.42
2018-09-23T18:07:24.634Z,21.36
2018-09-23T18:09:54.523Z,21.27
2018-09-23T18:12:23.881Z,21.25
2018-09-23T18:14:53.030Z,21.18
2018-09-23T18:17:22.180Z,21.15
2018-09-23T18:19:51.399Z,21.11
2018-09-23T18:28:05.277Z,20.99
2018-09-23T18:30:34.981Z,20.93
2018-09-23T18:33:04.248Z,20.94
2018-09-23T18:35:34.858Z,20.89
2018-09-23T18:38:04.156Z,20.94
2018-09-23T18:40:34.038Z,20.91
2018-09-23T18:43:03.326Z,20.85
2018-09-23T18:45:32.788Z,20.82
2018-09-23T18:48:01.938Z,20.76
2018-09-23T18:50:31.478Z,20.74
2018-09-23T18:53:06.282Z,20.72
2018-09-23T18:55:39.988Z,20.62
2018-09-23T18:58:09.220Z,20.43
2018-09-23T19:00:38.546Z,20.45
2018-09-23T19:03:07.863Z,20.58
2018-09-23T19:05:37.230Z,20.31
2018-09-23T19:08:06.422Z,20.42
2018-09-23T19:10:36.325Z,20.61
2018-09-23T19:13:10.589Z,20.60
2018-09-23T19:15:39.813Z,20.54
2018-09-23T19:18:09.027Z,20.42
2018-09-23T19:20:42.057Z,20.41
2018-09-23T19:23:12.522Z,20.32
2018-09-23T19:25:41.947Z,20.30
2018-09-23T19:28:11.196Z,20.30
2018-09-23T19:30:40.450Z,20.28
2018-09-23T19:33:09.621Z,20.19
2018-09-23T19:35:38.976Z,20.20
2018-09-23T19:38:08.215Z,20.20
2018-09-23T19:40:37.361Z,20.11
2018-09-23T19:43:06.570Z,20.13
2018-09-23T19:45:36.217Z,20.14
2018-09-23T19:48:05.602Z,20.13
2018-09-23T19:50:35.509Z,20.07
2018-09-23T19:53:04.826Z,20.02
2018-09-23T19:55:34.538Z,19.93
2018-09-23T19:58:03.828Z,19.91
2018-09-23T20:00:34.050Z,19.76
2018-09-23T20:03:03.181Z,19.74
2018-09-23T20:05:32.809Z,19.78
2018-09-23T20:08:02.074Z,19.95
2018-09-23T20:10:31.412Z,20.16
2018-09-23T20:13:00.830Z,20.18
2018-09-23T20:15:30.069Z,20.06
2018-09-23T20:17:59.286Z,20.12
2018-09-23T20:20:29.435Z,20.00
2018-09-23T20:22:59.161Z,20.08
2018-09-23T20:25:28.537Z,20.14
2018-09-23T20:27:58.416Z,20.07
2018-09-23T20:30:27.782Z,20.04
2018-09-23T20:32:57.281Z,19.93
2018-09-23T20:35:27.196Z,19.83
2018-09-23T20:37:58.067Z,19.71
2018-09-23T20:40:28.032Z,19.61
2018-09-23T20:42:57.427Z,19.68
2018-09-23T20:45:26.885Z,20.10
2018-09-23T20:47:56.712Z,20.24
2018-09-23T20:50:26.672Z,20.37
2018-09-23T20:52:56.132Z,20.39
2018-09-23T20:55:30.422Z,20.49
2018-09-23T20:57:59.847Z,20.48
2018-09-23T21:00:33.351Z,20.44
2018-09-23T21:03:02.859Z,20.38
2018-09-23T21:05:32.508Z,20.16
2018-09-23T21:08:02.246Z,19.86
2018-09-23T21:10:32.172Z,19.92
2018-09-23T21:13:01.461Z,19.98
2018-09-23T21:15:30.697Z,20.04
2018-09-23T21:18:00.022Z,20.10
2018-09-23T21:20:29.651Z,20.14
2018-09-23T21:22:59.700Z,20.13
2018-09-23T21:25:29.003Z,20.10
2018-09-23T21:27:58.305Z,20.11
2018-09-23T21:30:27.728Z,20.07
2018-09-23T21:32:56.976Z,20.09
2018-09-23T21:35:26.241Z,20.08
2018-09-23T21:37:55.514Z,20.07
2018-09-23T21:40:26.976Z,19.95
2018-09-23T21:42:56.212Z,20.04
2018-09-23T21:45:25.460Z,20.03
2018-09-23T21:47:54.821Z,20.03
2018-09-23T21:50:24.169Z,20.03
2018-09-23T21:52:54.633Z,20.02
2018-09-23T21:55:23.908Z,19.98
2018-09-23T21:57:53.056Z,20.02
2018-09-23T22:00:23.287Z,19.95
2018-09-23T22:02:52.558Z,20.02
2018-09-23T22:05:21.841Z,19.93
2018-09-23T22:07:51.052Z,19.98
2018-09-23T22:10:22.732Z,19.99
2018-09-23T22:12:52.001Z,19.91
2018-09-23T22:15:25.364Z,19.96
2018-09-23T22:17:55.757Z,19.89
2018-09-23T22:20:25.713Z,19.85
2018-09-23T22:22:55.336Z,19.82
2018-09-23T22:25:25.184Z,19.77
2018-09-23T22:27:55.241Z,19.71
2018-09-23T22:30:24.467Z,19.78
2018-09-23T22:32:53.675Z,19.76
2018-09-23T22:35:24.226Z,19.77
2018-09-23T22:37:53.431Z,19.86
2018-09-23T22:40:22.929Z,19.89
2018-09-23T22:42:52.128Z,19.85
2018-09-23T22:45:21.317Z,19.84
2018-09-23T22:47:50.522Z,19.72
2018-09-23T22:50:22.125Z,19.76
2018-09-23T22:52:51.350Z,19.76
2018-09-23T22:55:20.566Z,19.66
2018-09-23T22:57:49.744Z,19.67
2018-09-23T23:00:22.991Z,19.64
2018-09-23T23:02:52.964Z,19.57
2018-09-23T23:05:22.240Z,19.65
2018-09-23T23:07:51.511Z,19.64
2018-09-23T23:10:20.728Z,19.55
2018-09-23T23:12:49.956Z,19.61
2018-09-23T23:15:20.844Z,19.62
2018-09-23T23:17:50.077Z,19.60
2018-09-23T23:20:21.221Z,19.54
2018-09-23T23:22:50.444Z,19.55
2018-09-23T23:25:19.679Z,19.58
2018-09-23T23:27:48.898Z,19.69
2018-09-23T23:30:21.279Z,19.91
2018-09-23T23:32:50.507Z,20.02
2018-09-23T23:35:19.932Z,20.06
2018-09-23T23:37:49.364Z,20.03
2018-09-23T23:40:20.808Z,19.94
2018-09-23T23:42:50.076Z,19.89
2018-09-23T23:45:20.400Z,19.84
2018-09-23T23:47:49.797Z,19.83
2018-09-23T23:50:21.478Z,19.76
2018-09-23T23:52:51.165Z,19.73
2018-09-23T23:55:20.197Z,19.62
2018-09-23T23:57:49.376Z,19.60
